sensor_id;sensor_type;location;lat;lon;timestamp;pressure;altitude;pressure_sealevel;temperature;humidity
63903;BME280;50072;50.678;13.938;2024-03-02T00:01:37;98498.75;;;8.52;100.00
63903;BME280;50072;50.678;13.938;2024-03-02T00:04:04;98496.00;;;8.53;100.00
63903;BME280;50072;50.678;13.938;2024-03-02T00:06:33;98507.50;;;8.55;100.00
63903;BME280;50072;50.678;13.938;2024-03-02T00:09:00;98501.28;;;8.55;100.00
63903;BME280;50072;50.678;13.938;2024-03-02T00:11:34;98500.25;;;8.59;100.00
63903;BME280;50072;50.678;13.938;2024-03-02T00:14:00;98502.00;;;8.60;100.00
63903;BME280;50072;50.678;13.938;2024-03-02T00:16:31;98501.16;;;8.58;100.00
63903;BME280;50072;50.678;13.938;2024-03-02T00:19:02;98499.16;;;8.64;100.00
63903;BME280;50072;50.678;13.938;2024-03-02T00:21:29;98505.34;;;8.67;100.00
63903;BME280;50072;50.678;13.938;2024-03-02T00:24:17;98501.78;;;8.66;100.00
63903;BME280;50072;50.678;13.938;2024-03-02T00:26:56;98505.28;;;8.68;100.00
63903;BME280;50072;50.678;13.938;2024-03-02T00:29:22;98505.81;;;8.53;100.00
63903;BME280;50072;50.678;13.938;2024-03-02T00:31:48;98501.50;;;8.49;100.00
63903;BME280;50072;50.678;13.938;2024-03-02T00:34:14;98491.28;;;8.61;100.00
63903;BME280;50072;50.678;13.938;2024-03-02T00:36:44;98490.41;;;8.61;100.00
63903;BME280;50072;50.678;13.938;2024-03-02T00:39:12;98487.81;;;8.59;100.00
63903;BME280;50072;50.678;13.938;2024-03-02T00:41:41;98480.66;;;8.60;100.00
63903;BME280;50072;50.678;13.938;2024-03-02T00:44:09;98486.00;;;8.60;100.00
63903;BME280;50072;50.678;13.938;2024-03-02T00:46:41;98485.78;;;8.66;100.00
63903;BME280;50072;50.678;13.938;2024-03-02T00:49:18;98495.81;;;8.59;100.00
63903;BME280;50072;50.678;13.938;2024-03-02T00:51:47;98497.47;;;8.62;100.00
63903;BME280;50072;50.678;13.938;2024-03-02T00:54:21;98496.78;;;8.57;100.00
63903;BME280;50072;50.678;13.938;2024-03-02T00:56:52;98498.78;;;8.50;100.00
63903;BME280;50072;50.678;13.938;2024-03-02T00:59:21;98500.00;;;8.40;100.00
63903;BME280;50072;50.678;13.938;2024-03-02T01:01:48;98503.03;;;8.29;100.00
63903;BME280;50072;50.678;13.938;2024-03-02T01:04:15;98506.84;;;8.22;100.00
63903;BME280;50072;50.678;13.938;2024-03-02T01:06:43;98500.84;;;8.15;100.00
63903;BME280;50072;50.678;13.938;2024-03-02T01:09:11;98501.06;;;8.09;100.00
63903;BME280;50072;50.678;13.938;2024-03-02T01:11:40;98501.16;;;8.06;100.00
63903;BME280;50072;50.678;13.938;2024-03-02T01:14:08;98497.53;;;8.08;100.00
63903;BME280;50072;50.678;13.938;2024-03-02T01:16:37;98496.50;;;8.12;100.00
63903;BME280;50072;50.678;13.938;2024-03-02T01:19:07;98490.97;;;8.19;100.00
63903;BME280;50072;50.678;13.938;2024-03-02T01:21:38;98501.50;;;8.22;100.00
63903;BME280;50072;50.678;13.938;2024-03-02T01:24:04;98494.34;;;8.24;100.00
63903;BME280;50072;50.678;13.938;2024-03-02T01:26:30;98498.66;;;8.28;100.00
63903;BME280;50072;50.678;13.938;2024-03-02T01:28:59;98497.72;;;8.29;100.00
63903;BME280;50072;50.678;13.938;2024-03-02T01:31:28;98492.38;;;8.29;100.00
63903;BME280;50072;50.678;13.938;2024-03-02T01:33:54;98493.22;;;8.31;100.00
63903;BME280;50072;50.678;13.938;2024-03-02T01:36:28;98491.25;;;8.36;100.00
63903;BME280;50072;50.678;13.938;2024-03-02T01:38:53;98492.19;;;8.35;100.00
63903;BME280;50072;50.678;13.938;2024-03-02T01:41:30;98488.50;;;8.38;100.00
63903;BME280;50072;50.678;13.938;2024-03-02T01:43:55;98486.81;;;8.37;100.00
63903;BME280;50072;50.678;13.938;2024-03-02T01:46:28;98479.66;;;8.37;100.00
63903;BME280;50072;50.678;13.938;2024-03-02T01:49:00;98485.97;;;8.35;100.00
63903;BME280;50072;50.678;13.938;2024-03-02T01:51:26;98486.84;;;8.35;100.00
63903;BME280;50072;50.678;13.938;2024-03-02T01:53:53;98489.78;;;8.27;100.00
63903;BME280;50072;50.678;13.938;2024-03-02T01:56:27;98494.78;;;8.37;100.00
63903;BME280;50072;50.678;13.938;2024-03-02T01:58:54;98490.66;;;8.28;100.00
63903;BME280;50072;50.678;13.938;2024-03-02T02:01:28;98491.69;;;8.24;100.00
63903;BME280;50072;50.678;13.938;2024-03-02T02:03:55;98484.72;;;8.20;100.00
63903;BME280;50072;50.678;13.938;2024-03-02T02:06:22;98492.59;;;8.23;100.00
63903;BME280;50072;50.678;13.938;2024-03-02T02:08:47;98487.94;;;8.29;100.00
63903;BME280;50072;50.678;13.938;2024-03-02T02:11:16;98487.72;;;8.36;100.00
63903;BME280;50072;50.678;13.938;2024-03-02T02:13:43;98476.03;;;8.40;100.00
63903;BME280;50072;50.678;13.938;2024-03-02T02:16:09;98475.25;;;8.36;100.00
63903;BME280;50072;50.678;13.938;2024-03-02T02:18:36;98480.44;;;8.41;100.00
63903;BME280;50072;50.678;13.938;2024-03-02T02:21:03;98480.31;;;8.45;100.00
63903;BME280;50072;50.678;13.938;2024-03-02T02:23:30;98479.88;;;8.31;100.00
63903;BME280;50072;50.678;13.938;2024-03-02T02:25:59;98485.34;;;8.28;100.00
63903;BME280;50072;50.678;13.938;2024-03-02T02:28:25;98480.00;;;8.28;100.00
63903;BME280;50072;50.678;13.938;2024-03-02T02:30:51;98481.16;;;8.19;100.00
63903;BME280;50072;50.678;13.938;2024-03-02T02:33:18;98476.06;;;8.13;100.00
63903;BME280;50072;50.678;13.938;2024-03-02T02:35:44;98476.91;;;8.13;100.00
63903;BME280;50072;50.678;13.938;2024-03-02T02:38:09;98475.09;;;8.16;100.00
63903;BME280;50072;50.678;13.938;2024-03-02T02:40:36;98481.44;;;8.11;100.00
63903;BME280;50072;50.678;13.938;2024-03-02T02:43:04;98480.34;;;8.17;100.00
63903;BME280;50072;50.678;13.938;2024-03-02T02:45:31;98472.19;;;8.22;100.00
63903;BME280;50072;50.678;13.938;2024-03-02T02:47:59;98483.69;;;8.24;100.00
63903;BME280;50072;50.678;13.938;2024-03-02T02:50:28;98471.28;;;8.23;100.00
63903;BME280;50072;50.678;13.938;2024-03-02T02:52:57;98481.72;;;8.29;100.00
63903;BME280;50072;50.678;13.938;2024-03-02T02:55:25;98479.88;;;8.31;100.00
63903;BME280;50072;50.678;13.938;2024-03-02T02:57:58;98478.84;;;8.35;100.00
63903;BME280;50072;50.678;13.938;2024-03-02T03:00:24;98479.66;;;8.37;100.00
63903;BME280;50072;50.678;13.938;2024-03-02T03:02:49;98476.50;;;8.26;100.00
63903;BME280;50072;50.678;13.938;2024-03-02T03:05:17;98473.13;;;8.21;100.00
63903;BME280;50072;50.678;13.938;2024-03-02T03:07:44;98477.75;;;8.16;100.00
63903;BME280;50072;50.678;13.938;2024-03-02T03:10:12;98473.56;;;8.08;100.00
63903;BME280;50072;50.678;13.938;2024-03-02T03:12:38;98468.28;;;8.07;100.00
63903;BME280;50072;50.678;13.938;2024-03-02T03:15:08;98467.38;;;8.06;100.00
63903;BME280;50072;50.678;13.938;2024-03-02T03:17:40;98472.03;;;8.01;100.00
63903;BME280;50072;50.678;13.938;2024-03-02T03:20:06;98463.00;;;8.05;100.00
63903;BME280;50072;50.678;13.938;2024-03-02T03:22:37;98469.25;;;8.04;100.00
63903;BME280;50072;50.678;13.938;2024-03-02T03:25:04;98460.47;;;8.01;100.00
63903;BME280;50072;50.678;13.938;2024-03-02T03:27:31;98464.16;;;7.97;100.00
63903;BME280;50072;50.678;13.938;2024-03-02T03:29:59;98460.75;;;7.93;100.00
63903;BME280;50072;50.678;13.938;2024-03-02T03:32:24;98472.31;;;7.92;100.00
63903;BME280;50072;50.678;13.938;2024-03-02T03:34:50;98465.41;;;7.86;100.00
63903;BME280;50072;50.678;13.938;2024-03-02T03:37:17;98475.16;;;7.87;100.00
63903;BME280;50072;50.678;13.938;2024-03-02T03:39:44;98477.75;;;7.89;100.00
63903;BME280;50072;50.678;13.938;2024-03-02T03:42:11;98478.59;;;7.91;100.00
63903;BME280;50072;50.678;13.938;2024-03-02T03:44:40;98482.00;;;7.94;100.00
63903;BME280;50072;50.678;13.938;2024-03-02T03:47:09;98494.47;;;7.94;100.00
63903;BME280;50072;50.678;13.938;2024-03-02T03:49:35;98480.38;;;7.90;100.00
63903;BME280;50072;50.678;13.938;2024-03-02T03:52:14;98488.41;;;7.89;100.00
63903;BME280;50072;50.678;13.938;2024-03-02T03:54:41;98479.50;;;7.90;100.00
63903;BME280;50072;50.678;13.938;2024-03-02T03:57:08;98480.94;;;8.00;100.00
63903;BME280;50072;50.678;13.938;2024-03-02T03:59:34;98482.56;;;8.04;100.00
63903;BME280;50072;50.678;13.938;2024-03-02T04:02:00;98475.59;;;8.00;100.00
63903;BME280;50072;50.678;13.938;2024-03-02T04:04:27;98480.03;;;8.01;100.00
63903;BME280;50072;50.678;13.938;2024-03-02T04:06:53;98480.81;;;8.03;100.00
63903;BME280;50072;50.678;13.938;2024-03-02T04:09:20;98485.28;;;8.03;100.00
63903;BME280;50072;50.678;13.938;2024-03-02T04:11:45;98473.09;;;7.95;100.00
63903;BME280;50072;50.678;13.938;2024-03-02T04:14:13;98487.34;;;7.94;100.00
63903;BME280;50072;50.678;13.938;2024-03-02T04:16:40;98484.00;;;7.88;100.00
63903;BME280;50072;50.678;13.938;2024-03-02T04:19:08;98475.31;;;7.83;100.00
63903;BME280;50072;50.678;13.938;2024-03-02T04:21:37;98487.34;;;7.94;100.00
63903;BME280;50072;50.678;13.938;2024-03-02T04:24:03;98480.47;;;7.87;100.00
63903;BME280;50072;50.678;13.938;2024-03-02T04:26:30;98485.53;;;7.95;100.00
63903;BME280;50072;50.678;13.938;2024-03-02T04:28:56;98494.16;;;8.03;100.00
63903;BME280;50072;50.678;13.938;2024-03-02T04:31:23;98499.28;;;8.09;100.00
63903;BME280;50072;50.678;13.938;2024-03-02T04:33:49;98496.63;;;8.09;100.00
63903;BME280;50072;50.678;13.938;2024-03-02T04:36:20;98507.28;;;8.09;100.00
63903;BME280;50072;50.678;13.938;2024-03-02T04:38:46;98503.03;;;8.04;100.00
63903;BME280;50072;50.678;13.938;2024-03-02T04:41:12;98507.47;;;8.03;100.00
63903;BME280;50072;50.678;13.938;2024-03-02T04:43:38;98518.06;;;8.05;100.00
63903;BME280;50072;50.678;13.938;2024-03-02T04:46:14;98521.56;;;8.07;100.00
63903;BME280;50072;50.678;13.938;2024-03-02T04:48:40;98523.78;;;7.94;100.00
63903;BME280;50072;50.678;13.938;2024-03-02T04:51:06;98533.59;;;7.92;100.00
63903;BME280;50072;50.678;13.938;2024-03-02T04:53:32;98533.50;;;7.95;100.00
63903;BME280;50072;50.678;13.938;2024-03-02T04:55:59;98522.03;;;7.93;100.00
63903;BME280;50072;50.678;13.938;2024-03-02T04:58:56;98531.88;;;7.91;100.00
63903;BME280;50072;50.678;13.938;2024-03-02T05:01:24;98542.53;;;7.89;100.00
63903;BME280;50072;50.678;13.938;2024-03-02T05:03:51;98537.22;;;7.89;100.00
63903;BME280;50072;50.678;13.938;2024-03-02T05:06:23;98533.75;;;7.87;100.00
63903;BME280;50072;50.678;13.938;2024-03-02T05:08:50;98538.69;;;8.00;100.00
63903;BME280;50072;50.678;13.938;2024-03-02T05:11:21;98544.88;;;8.00;100.00
63903;BME280;50072;50.678;13.938;2024-03-02T05:14:15;98549.41;;;7.98;100.00
63903;BME280;50072;50.678;13.938;2024-03-02T05:16:47;98550.22;;;8.00;100.00
63903;BME280;50072;50.678;13.938;2024-03-02T05:19:14;98553.41;;;8.11;100.00
63903;BME280;50072;50.678;13.938;2024-03-02T05:21:41;98554.31;;;8.10;100.00
63903;BME280;50072;50.678;13.938;2024-03-02T05:24:06;98558.19;;;8.00;100.00
63903;BME280;50072;50.678;13.938;2024-03-02T05:26:32;98555.91;;;7.88;100.00
63903;BME280;50072;50.678;13.938;2024-03-02T05:28:59;98568.44;;;7.86;100.00
63903;BME280;50072;50.678;13.938;2024-03-02T05:31:25;98571.16;;;7.84;100.00
63903;BME280;50072;50.678;13.938;2024-03-02T05:33:56;98568.59;;;7.81;100.00
63903;BME280;50072;50.678;13.938;2024-03-02T05:36:22;98558.00;;;7.78;100.00
63903;BME280;50072;50.678;13.938;2024-03-02T05:38:48;98570.13;;;7.88;100.00
63903;BME280;50072;50.678;13.938;2024-03-02T05:41:14;98572.00;;;7.85;100.00
63903;BME280;50072;50.678;13.938;2024-03-02T05:43:40;98573.03;;;7.81;100.00
63903;BME280;50072;50.678;13.938;2024-03-02T05:46:07;98576.28;;;7.90;100.00
63903;BME280;50072;50.678;13.938;2024-03-02T05:48:35;98580.63;;;7.93;100.00
63903;BME280;50072;50.678;13.938;2024-03-02T05:51:01;98591.34;;;7.91;100.00
63903;BME280;50072;50.678;13.938;2024-03-02T05:53:27;98589.53;;;7.92;100.00
63903;BME280;50072;50.678;13.938;2024-03-02T05:55:53;98588.00;;;7.85;100.00
63903;BME280;50072;50.678;13.938;2024-03-02T05:58:24;98583.56;;;7.84;100.00
63903;BME280;50072;50.678;13.938;2024-03-02T06:01:04;98594.53;;;7.74;100.00
63903;BME280;50072;50.678;13.938;2024-03-02T06:03:31;98589.94;;;7.80;100.00
63903;BME280;50072;50.678;13.938;2024-03-02T06:05:58;98592.72;;;7.75;100.00
63903;BME280;50072;50.678;13.938;2024-03-02T06:08:25;98597.19;;;7.74;100.00
63903;BME280;50072;50.678;13.938;2024-03-02T06:10:51;98594.69;;;7.70;100.00
63903;BME280;50072;50.678;13.938;2024-03-02T06:13:18;98599.13;;;7.69;100.00
63903;BME280;50072;50.678;13.938;2024-03-02T06:15:44;98600.13;;;7.65;100.00
63903;BME280;50072;50.678;13.938;2024-03-02T06:18:10;98606.28;;;7.67;100.00
63903;BME280;50072;50.678;13.938;2024-03-02T06:20:36;98611.56;;;7.69;100.00
63903;BME280;50072;50.678;13.938;2024-03-02T06:23:04;98607.94;;;7.71;100.00
63903;BME280;50072;50.678;13.938;2024-03-02T06:25:32;98615.09;;;7.69;100.00
63903;BME280;50072;50.678;13.938;2024-03-02T06:27:59;98616.94;;;7.67;100.00
63903;BME280;50072;50.678;13.938;2024-03-02T06:30:26;98616.00;;;7.70;100.00
63903;BME280;50072;50.678;13.938;2024-03-02T06:32:52;98616.00;;;7.70;100.00
63903;BME280;50072;50.678;13.938;2024-03-02T06:35:19;98623.13;;;7.68;100.00
63903;BME280;50072;50.678;13.938;2024-03-02T06:37:46;98623.09;;;7.69;100.00
63903;BME280;50072;50.678;13.938;2024-03-02T06:40:13;98627.41;;;7.73;100.00
63903;BME280;50072;50.678;13.938;2024-03-02T06:42:38;98627.41;;;7.73;100.00
63903;BME280;50072;50.678;13.938;2024-03-02T06:45:06;98629.25;;;7.71;100.00
63903;BME280;50072;50.678;13.938;2024-03-02T06:47:32;98633.63;;;7.72;100.00
63903;BME280;50072;50.678;13.938;2024-03-02T06:49:59;98627.41;;;7.73;100.00
63903;BME280;50072;50.678;13.938;2024-03-02T06:52:25;98636.22;;;7.75;100.00
63903;BME280;50072;50.678;13.938;2024-03-02T06:54:52;98634.28;;;7.81;100.00
63903;BME280;50072;50.678;13.938;2024-03-02T06:57:20;98631.63;;;7.81;100.00
63903;BME280;50072;50.678;13.938;2024-03-02T06:59:47;98632.38;;;7.86;100.00
63903;BME280;50072;50.678;13.938;2024-03-02T07:02:15;98638.34;;;7.94;100.00
63903;BME280;50072;50.678;13.938;2024-03-02T07:04:43;98631.25;;;7.93;100.00
63903;BME280;50072;50.678;13.938;2024-03-02T07:07:11;98634.69;;;7.97;100.00
63903;BME280;50072;50.678;13.938;2024-03-02T07:09:39;98632.69;;;8.03;100.00
63903;BME280;50072;50.678;13.938;2024-03-02T07:12:06;98637.03;;;8.07;100.00
63903;BME280;50072;50.678;13.938;2024-03-02T07:14:32;98641.53;;;8.05;100.00
63903;BME280;50072;50.678;13.938;2024-03-02T07:17:23;98644.25;;;8.04;100.00
63903;BME280;50072;50.678;13.938;2024-03-02T07:19:50;98645.94;;;8.06;100.00
63903;BME280;50072;50.678;13.938;2024-03-02T07:22:15;98639.59;;;8.10;100.00
63903;BME280;50072;50.678;13.938;2024-03-02T07:24:44;98651.19;;;8.09;100.00
63903;BME280;50072;50.678;13.938;2024-03-02T07:27:14;98658.34;;;8.07;100.00
63903;BME280;50072;50.678;13.938;2024-03-02T07:29:41;98662.06;;;8.02;100.00
63903;BME280;50072;50.678;13.938;2024-03-02T07:32:09;98665.69;;;7.99;100.00
63903;BME280;50072;50.678;13.938;2024-03-02T07:34:36;98664.03;;;7.95;100.00
63903;BME280;50072;50.678;13.938;2024-03-02T07:37:05;98665.78;;;7.96;100.00
63903;BME280;50072;50.678;13.938;2024-03-02T07:39:33;98662.38;;;7.92;100.00
63903;BME280;50072;50.678;13.938;2024-03-02T07:41:59;98671.13;;;7.96;100.00
63903;BME280;50072;50.678;13.938;2024-03-02T07:44:26;98666.69;;;7.95;100.00
63903;BME280;50072;50.678;13.938;2024-03-02T07:46:52;98678.66;;;8.11;100.00
63903;BME280;50072;50.678;13.938;2024-03-02T07:49:20;98677.53;;;8.19;100.00
63903;BME280;50072;50.678;13.938;2024-03-02T07:51:46;98680.84;;;8.27;100.00
63903;BME280;50072;50.678;13.938;2024-03-02T07:54:14;98688.41;;;8.39;100.00
63903;BME280;50072;50.678;13.938;2024-03-02T07:56:42;98684.75;;;8.43;100.00
63903;BME280;50072;50.678;13.938;2024-03-02T07:59:09;98684.91;;;8.39;100.00
63903;BME280;50072;50.678;13.938;2024-03-02T08:01:37;98691.00;;;8.42;100.00
63903;BME280;50072;50.678;13.938;2024-03-02T08:04:04;98692.38;;;8.56;100.00
63903;BME280;50072;50.678;13.938;2024-03-02T08:06:30;98689.50;;;8.62;100.00
63903;BME280;50072;50.678;13.938;2024-03-02T08:08:59;98703.06;;;8.56;100.00
63903;BME280;50072;50.678;13.938;2024-03-02T08:11:27;98703.22;;;8.51;100.00
63903;BME280;50072;50.678;13.938;2024-03-02T08:13:53;98709.34;;;8.53;100.00
63903;BME280;50072;50.678;13.938;2024-03-02T08:16:23;98714.41;;;8.62;100.00
63903;BME280;50072;50.678;13.938;2024-03-02T08:18:52;98716.09;;;8.65;100.00
63903;BME280;50072;50.678;13.938;2024-03-02T08:21:19;98714.19;;;8.69;100.00
63903;BME280;50072;50.678;13.938;2024-03-02T08:23:46;98719.31;;;8.75;100.00
63903;BME280;50072;50.678;13.938;2024-03-02T08:26:12;98721.06;;;8.76;100.00
63903;BME280;50072;50.678;13.938;2024-03-02T08:28:39;98720.78;;;8.85;100.00
63903;BME280;50072;50.678;13.938;2024-03-02T08:31:07;98722.56;;;8.85;100.00
63903;BME280;50072;50.678;13.938;2024-03-02T08:33:34;98713.31;;;8.95;100.00
63903;BME280;50072;50.678;13.938;2024-03-02T08:36:01;98703.59;;;8.94;100.00
63903;BME280;50072;50.678;13.938;2024-03-02T08:38:27;98712.63;;;8.90;100.00
63903;BME280;50072;50.678;13.938;2024-03-02T08:40:54;98709.88;;;8.91;100.00
63903;BME280;50072;50.678;13.938;2024-03-02T08:43:20;98705.31;;;8.95;100.00
63903;BME280;50072;50.678;13.938;2024-03-02T08:45:48;98704.22;;;9.01;100.00
63903;BME280;50072;50.678;13.938;2024-03-02T08:48:14;98698.25;;;9.19;100.00
63903;BME280;50072;50.678;13.938;2024-03-02T08:50:41;98702.13;;;9.10;100.00
63903;BME280;50072;50.678;13.938;2024-03-02T08:53:06;98702.50;;;9.00;100.00
63903;BME280;50072;50.678;13.938;2024-03-02T08:55:34;98710.34;;;9.04;100.00
63903;BME280;50072;50.678;13.938;2024-03-02T08:58:00;98701.31;;;9.08;100.00
63903;BME280;50072;50.678;13.938;2024-03-02T09:00:28;98703.88;;;9.11;100.00
63903;BME280;50072;50.678;13.938;2024-03-02T09:02:54;98709.94;;;9.17;100.00
63903;BME280;50072;50.678;13.938;2024-03-02T09:05:21;98709.75;;;9.21;100.00
63903;BME280;50072;50.678;13.938;2024-03-02T09:07:47;98718.53;;;9.25;100.00
63903;BME280;50072;50.678;13.938;2024-03-02T09:10:14;98709.28;;;9.35;100.00
63903;BME280;50072;50.678;13.938;2024-03-02T09:12:40;98732.06;;;9.45;100.00
63903;BME280;50072;50.678;13.938;2024-03-02T09:15:08;98727.03;;;9.36;100.00
63903;BME280;50072;50.678;13.938;2024-03-02T09:17:34;98734.78;;;9.44;100.00
63903;BME280;50072;50.678;13.938;2024-03-02T09:20:00;98741.09;;;9.41;100.00
63903;BME280;50072;50.678;13.938;2024-03-02T09:22:26;98738.19;;;9.47;100.00
63903;BME280;50072;50.678;13.938;2024-03-02T09:24:52;98744.63;;;9.42;100.00
63903;BME280;50072;50.678;13.938;2024-03-02T09:27:18;98740.56;;;9.57;100.00
63903;BME280;50072;50.678;13.938;2024-03-02T09:29:44;98747.53;;;9.61;100.00
63903;BME280;50072;50.678;13.938;2024-03-02T09:32:13;98743.91;;;9.62;100.00
63903;BME280;50072;50.678;13.938;2024-03-02T09:34:41;98730.63;;;9.60;100.00
63903;BME280;50072;50.678;13.938;2024-03-02T09:37:08;98739.28;;;9.67;100.00
63903;BME280;50072;50.678;13.938;2024-03-02T09:39:38;98740.50;;;9.83;100.00
63903;BME280;50072;50.678;13.938;2024-03-02T09:42:04;98734.38;;;10.04;100.00
63903;BME280;50072;50.678;13.938;2024-03-02T09:44:32;98733.41;;;10.06;100.00
63903;BME280;50072;50.678;13.938;2024-03-02T09:46:58;98735.59;;;10.18;100.00
63903;BME280;50072;50.678;13.938;2024-03-02T09:49:24;98726.25;;;10.30;100.00
63903;BME280;50072;50.678;13.938;2024-03-02T09:51:50;98720.41;;;10.43;100.00
63903;BME280;50072;50.678;13.938;2024-03-02T09:54:18;98715.72;;;10.49;100.00
63903;BME280;50072;50.678;13.938;2024-03-02T09:56:44;98717.72;;;10.66;100.00
63903;BME280;50072;50.678;13.938;2024-03-02T09:59:10;98711.72;;;10.82;100.00
63903;BME280;50072;50.678;13.938;2024-03-02T10:01:37;98712.81;;;10.98;100.00
63903;BME280;50072;50.678;13.938;2024-03-02T10:04:05;98707.56;;;11.17;100.00
63903;BME280;50072;50.678;13.938;2024-03-02T10:06:31;98698.97;;;11.30;100.00
63903;BME280;50072;50.678;13.938;2024-03-02T10:08:58;98704.59;;;11.44;100.00
63903;BME280;50072;50.678;13.938;2024-03-02T10:11:29;98718.75;;;11.48;100.00
63903;BME280;50072;50.678;13.938;2024-03-02T10:14:11;98716.03;;;11.68;100.00
63903;BME280;50072;50.678;13.938;2024-03-02T10:19:23;98717.28;;;13.12;100.00
63903;BME280;50072;50.678;13.938;2024-03-02T10:21:51;98707.81;;;13.05;100.00
63903;BME280;50072;50.678;13.938;2024-03-02T10:24:18;98710.56;;;13.03;100.00
63903;BME280;50072;50.678;13.938;2024-03-02T10:26:45;98694.69;;;13.16;100.00
63903;BME280;50072;50.678;13.938;2024-03-02T10:29:11;98697.06;;;13.05;100.00
63903;BME280;50072;50.678;13.938;2024-03-02T10:31:41;98698.47;;;13.12;100.00
63903;BME280;50072;50.678;13.938;2024-03-02T10:34:08;98707.72;;;12.89;100.00
63903;BME280;50072;50.678;13.938;2024-03-02T10:36:37;98704.16;;;12.52;100.00
63903;BME280;50072;50.678;13.938;2024-03-02T10:39:04;98689.34;;;12.62;100.00
63903;BME280;50072;50.678;13.938;2024-03-02T10:41:33;98690.03;;;12.10;100.00
63903;BME280;50072;50.678;13.938;2024-03-02T10:44:03;98695.09;;;11.57;100.00
63903;BME280;50072;50.678;13.938;2024-03-02T10:46:30;98691.44;;;11.58;100.00
63903;BME280;50072;50.678;13.938;2024-03-02T10:49:05;98690.28;;;11.64;100.00
63903;BME280;50072;50.678;13.938;2024-03-02T10:51:33;98700.50;;;11.35;100.00
63903;BME280;50072;50.678;13.938;2024-03-02T10:54:02;98692.50;;;11.15;100.00
63903;BME280;50072;50.678;13.938;2024-03-02T10:56:41;98690.81;;;10.92;100.00
63903;BME280;50072;50.678;13.938;2024-03-02T10:59:17;98689.78;;;10.94;100.00
63903;BME280;50072;50.678;13.938;2024-03-02T11:01:48;98689.47;;;11.02;100.00
63903;BME280;50072;50.678;13.938;2024-03-02T11:04:16;98686.66;;;11.05;100.00
63903;BME280;50072;50.678;13.938;2024-03-02T11:06:49;98682.50;;;10.98;100.00
63903;BME280;50072;50.678;13.938;2024-03-02T11:09:18;98682.44;;;10.99;100.00
63903;BME280;50072;50.678;13.938;2024-03-02T11:11:49;98686.13;;;11.17;100.00
63903;BME280;50072;50.678;13.938;2024-03-02T11:14:24;98690.34;;;11.23;100.00
63903;BME280;50072;50.678;13.938;2024-03-02T11:16:53;98693.28;;;11.37;100.00
63903;BME280;50072;50.678;13.938;2024-03-02T11:19:20;98696.97;;;11.35;100.00
63903;BME280;50072;50.678;13.938;2024-03-02T11:21:47;98696.72;;;11.20;100.00
63903;BME280;50072;50.678;13.938;2024-03-02T11:26:59;98688.41;;;11.06;100.00
63903;BME280;50072;50.678;13.938;2024-03-02T11:32:13;98680.47;;;11.03;100.00
63903;BME280;50072;50.678;13.938;2024-03-02T11:34:42;98688.38;;;10.85;100.00
63903;BME280;50072;50.678;13.938;2024-03-02T11:37:12;98682.59;;;10.74;100.00
63903;BME280;50072;50.678;13.938;2024-03-02T11:39:43;98683.78;;;10.67;100.00
63903;BME280;50072;50.678;13.938;2024-03-02T11:42:15;98673.34;;;10.61;100.00
63903;BME280;50072;50.678;13.938;2024-03-02T11:44:46;98674.75;;;10.47;100.00
63903;BME280;50072;50.678;13.938;2024-03-02T11:47:15;98678.97;;;10.31;100.00
63903;BME280;50072;50.678;13.938;2024-03-02T11:49:48;98674.59;;;10.28;100.00
63903;BME280;50072;50.678;13.938;2024-03-02T11:52:15;98672.97;;;10.24;100.00
63903;BME280;50072;50.678;13.938;2024-03-02T11:54:45;98678.59;;;10.18;100.00
63903;BME280;50072;50.678;13.938;2024-03-02T11:57:28;98682.41;;;10.34;100.00
63903;BME280;50072;50.678;13.938;2024-03-02T11:59:58;98683.44;;;10.30;100.00
63903;BME280;50072;50.678;13.938;2024-03-02T12:02:24;98675.47;;;10.29;100.00
63903;BME280;50072;50.678;13.938;2024-03-02T12:04:50;98675.00;;;10.17;100.00
63903;BME280;50072;50.678;13.938;2024-03-02T12:07:26;98677.59;;;10.21;100.00
63903;BME280;50072;50.678;13.938;2024-03-02T12:10:02;98682.25;;;10.15;100.00
63903;BME280;50072;50.678;13.938;2024-03-02T12:12:30;98674.09;;;10.18;100.00
63903;BME280;50072;50.678;13.938;2024-03-02T12:14:56;98673.22;;;10.18;100.00
63903;BME280;50072;50.678;13.938;2024-03-02T12:17:22;98664.09;;;10.24;100.00
63903;BME280;50072;50.678;13.938;2024-03-02T12:19:50;98660.84;;;10.39;100.00
63903;BME280;50072;50.678;13.938;2024-03-02T12:22:17;98654.91;;;10.53;100.00
63903;BME280;50072;50.678;13.938;2024-03-02T12:24:45;98662.63;;;10.61;100.00
63903;BME280;50072;50.678;13.938;2024-03-02T12:27:12;98659.34;;;10.54;100.00
63903;BME280;50072;50.678;13.938;2024-03-02T12:29:39;98662.84;;;10.56;100.00
63903;BME280;50072;50.678;13.938;2024-03-02T12:32:05;98654.97;;;10.51;100.00
63903;BME280;50072;50.678;13.938;2024-03-02T12:34:32;98659.63;;;10.68;100.00
63903;BME280;50072;50.678;13.938;2024-03-02T12:37:01;98658.06;;;10.63;100.00
63903;BME280;50072;50.678;13.938;2024-03-02T12:39:27;98654.34;;;10.67;100.00
63903;BME280;50072;50.678;13.938;2024-03-02T12:41:52;98662.78;;;10.78;100.00
63903;BME280;50072;50.678;13.938;2024-03-02T12:44:20;98666.22;;;10.82;100.00
63903;BME280;50072;50.678;13.938;2024-03-02T12:46:46;98661.53;;;10.87;100.00
63903;BME280;50072;50.678;13.938;2024-03-02T12:49:15;98654.25;;;10.91;100.00
63903;BME280;50072;50.678;13.938;2024-03-02T12:51:55;98652.06;;;11.00;100.00
63903;BME280;50072;50.678;13.938;2024-03-02T12:54:29;98651.31;;;10.97;100.00
63903;BME280;50072;50.678;13.938;2024-03-02T12:57:02;98647.63;;;11.20;100.00
63903;BME280;50072;50.678;13.938;2024-03-02T12:59:32;98642.41;;;11.17;100.00
63903;BME280;50072;50.678;13.938;2024-03-02T13:02:01;98649.69;;;11.34;100.00